sensor_id;sensor_type;location;lat;lon;timestamp;pressure;altitude;pressure_sealevel;temperature;humidity
25510;BME280;13413;52.336;21.200;2023-05-21T00:00:08;101337.20;;;16.88;59.13
25510;BME280;13413;52.336;21.200;2023-05-21T00:03:02;101334.30;;;16.88;59.16
25510;BME280;13413;52.336;21.200;2023-05-21T00:05:56;101327.16;;;16.89;59.27
25510;BME280;13413;52.336;21.200;2023-05-21T00:08:51;101327.27;;;16.91;59.21
25510;BME280;13413;52.336;21.200;2023-05-21T00:11:45;101326.27;;;16.91;59.29
25510;BME280;13413;52.336;21.200;2023-05-21T00:14:39;101329.30;;;16.89;59.24
25510;BME280;13413;52.336;21.200;2023-05-21T00:17:34;101330.69;;;16.87;59.22
25510;BME280;13413;52.336;21.200;2023-05-21T00:20:27;101327.56;;;16.84;59.32
25510;BME280;13413;52.336;21.200;2023-05-21T00:23:21;101328.16;;;16.77;59.27
25510;BME280;13413;52.336;21.200;2023-05-21T00:26:16;101326.91;;;16.75;59.45
25510;BME280;13413;52.336;21.200;2023-05-21T00:29:09;101324.15;;;16.71;59.48
25510;BME280;13413;52.336;21.200;2023-05-21T00:32:05;101321.15;;;16.68;59.59
25510;BME280;13413;52.336;21.200;2023-05-21T00:34:59;101320.66;;;16.60;59.73
25510;BME280;13413;52.336;21.200;2023-05-21T00:37:52;101321.67;;;16.53;59.87
25510;BME280;13413;52.336;21.200;2023-05-21T00:40:46;101325.52;;;16.54;59.80
25510;BME280;13413;52.336;21.200;2023-05-21T00:47:06;101322.41;;;16.52;59.75
25510;BME280;13413;52.336;21.200;2023-05-21T00:50:00;101330.20;;;16.49;59.71
25510;BME280;13413;52.336;21.200;2023-05-21T00:53:02;101326.77;;;16.48;59.83
25510;BME280;13413;52.336;21.200;2023-05-21T00:55:56;101324.16;;;16.46;59.88
25510;BME280;13413;52.336;21.200;2023-05-21T00:58:51;101326.13;;;16.46;59.90
25510;BME280;13413;52.336;21.200;2023-05-21T01:01:45;101330.26;;;16.43;59.89
25510;BME280;13413;52.336;21.200;2023-05-21T01:04:39;101327.46;;;16.39;59.99
25510;BME280;13413;52.336;21.200;2023-05-21T01:07:33;101328.86;;;16.36;59.97
25510;BME280;13413;52.336;21.200;2023-05-21T01:10:29;101330.09;;;16.32;60.00
25510;BME280;13413;52.336;21.200;2023-05-21T01:13:24;101325.91;;;16.30;60.04
25510;BME280;13413;52.336;21.200;2023-05-21T01:16:18;101323.36;;;16.23;60.09
25510;BME280;13413;52.336;21.200;2023-05-21T01:19:15;101326.21;;;16.15;60.10
25510;BME280;13413;52.336;21.200;2023-05-21T01:22:09;101328.73;;;16.07;60.12
25510;BME280;13413;52.336;21.200;2023-05-21T01:25:06;101329.09;;;15.98;60.44
25510;BME280;13413;52.336;21.200;2023-05-21T01:28:00;101325.66;;;15.95;60.55
25510;BME280;13413;52.336;21.200;2023-05-21T01:30:54;101326.47;;;15.93;60.57
25510;BME280;13413;52.336;21.200;2023-05-21T01:33:51;101327.59;;;15.88;60.54
25510;BME280;13413;52.336;21.200;2023-05-21T01:36:52;101323.00;;;15.81;60.73
25510;BME280;13413;52.336;21.200;2023-05-21T01:39:53;101322.29;;;15.76;60.80
25510;BME280;13413;52.336;21.200;2023-05-21T01:42:48;101318.40;;;15.68;60.85
25510;BME280;13413;52.336;21.200;2023-05-21T01:45:43;101320.13;;;15.65;60.96
25510;BME280;13413;52.336;21.200;2023-05-21T01:48:39;101320.31;;;15.57;61.09
25510;BME280;13413;52.336;21.200;2023-05-21T01:51:34;101318.40;;;15.51;61.12
25510;BME280;13413;52.336;21.200;2023-05-21T01:57:23;101313.59;;;15.39;61.24
25510;BME280;13413;52.336;21.200;2023-05-21T02:00:17;101313.19;;;15.32;61.55
25510;BME280;13413;52.336;21.200;2023-05-21T02:03:12;101316.36;;;15.29;61.47
25510;BME280;13413;52.336;21.200;2023-05-21T02:06:06;101315.04;;;15.21;61.56
25510;BME280;13413;52.336;21.200;2023-05-21T02:09:00;101314.27;;;15.14;61.69
25510;BME280;13413;52.336;21.200;2023-05-21T02:11:54;101313.06;;;15.08;61.75
25510;BME280;13413;52.336;21.200;2023-05-21T02:14:48;101310.39;;;15.02;61.97
25510;BME280;13413;52.336;21.200;2023-05-21T02:17:42;101313.40;;;15.03;62.06
25510;BME280;13413;52.336;21.200;2023-05-21T02:20:52;101315.95;;;15.00;61.95
25510;BME280;13413;52.336;21.200;2023-05-21T02:23:45;101316.41;;;14.94;62.08
25510;BME280;13413;52.336;21.200;2023-05-21T02:26:40;101320.02;;;14.87;62.13
25510;BME280;13413;52.336;21.200;2023-05-21T02:29:34;101309.96;;;14.88;62.38
25510;BME280;13413;52.336;21.200;2023-05-21T02:32:28;101312.14;;;14.87;62.40
25510;BME280;13413;52.336;21.200;2023-05-21T02:35:22;101311.06;;;14.89;62.41
25510;BME280;13413;52.336;21.200;2023-05-21T02:38:16;101306.63;;;14.89;62.43
25510;BME280;13413;52.336;21.200;2023-05-21T02:41:10;101308.34;;;14.85;62.43
25510;BME280;13413;52.336;21.200;2023-05-21T02:44:04;101307.81;;;14.83;62.43
25510;BME280;13413;52.336;21.200;2023-05-21T02:46:57;101305.52;;;14.72;62.38
25510;BME280;13413;52.336;21.200;2023-05-21T02:49:52;101310.94;;;14.64;62.54
25510;BME280;13413;52.336;21.200;2023-05-21T02:52:46;101314.11;;;14.57;62.69
25510;BME280;13413;52.336;21.200;2023-05-21T02:55:54;101311.15;;;14.53;62.77
25510;BME280;13413;52.336;21.200;2023-05-21T02:58:47;101306.21;;;14.57;62.87
25510;BME280;13413;52.336;21.200;2023-05-21T03:04:27;101316.64;;;14.64;62.92
25510;BME280;13413;52.336;21.200;2023-05-21T03:07:21;101320.72;;;14.67;62.87
25510;BME280;13413;52.336;21.200;2023-05-21T03:10:15;101317.39;;;14.62;62.57
25510;BME280;13413;52.336;21.200;2023-05-21T03:13:09;101313.00;;;14.63;62.75
25510;BME280;13413;52.336;21.200;2023-05-21T03:16:04;101313.75;;;14.66;62.72
25510;BME280;13413;52.336;21.200;2023-05-21T03:18:58;101310.99;;;14.65;62.79
25510;BME280;13413;52.336;21.200;2023-05-21T03:21:53;101307.55;;;14.66;62.76
25510;BME280;13413;52.336;21.200;2023-05-21T03:24:46;101308.52;;;14.70;62.68
25510;BME280;13413;52.336;21.200;2023-05-21T03:27:41;101307.16;;;14.72;62.56
25510;BME280;13413;52.336;21.200;2023-05-21T03:30:34;101307.16;;;14.72;62.63
25510;BME280;13413;52.336;21.200;2023-05-21T03:33:28;101302.23;;;14.73;62.60
25510;BME280;13413;52.336;21.200;2023-05-21T03:36:22;101298.02;;;14.71;62.52
25510;BME280;13413;52.336;21.200;2023-05-21T03:39:16;101299.45;;;14.72;62.55
25510;BME280;13413;52.336;21.200;2023-05-21T03:42:10;101297.95;;;14.73;62.44
25510;BME280;13413;52.336;21.200;2023-05-21T03:45:05;101298.08;;;14.74;62.47
25510;BME280;13413;52.336;21.200;2023-05-21T03:47:59;101296.13;;;14.75;62.44
25510;BME280;13413;52.336;21.200;2023-05-21T03:50:53;101290.79;;;14.78;62.36
25510;BME280;13413;52.336;21.200;2023-05-21T03:53:47;101292.84;;;14.82;62.26
25510;BME280;13413;52.336;21.200;2023-05-21T03:56:41;101291.58;;;14.83;62.29
25510;BME280;13413;52.336;21.200;2023-05-21T03:59:36;101287.40;;;14.87;62.16
25510;BME280;13413;52.336;21.200;2023-05-21T04:02:30;101288.92;;;14.88;62.03
25510;BME280;13413;52.336;21.200;2023-05-21T04:05:24;101289.57;;;14.91;62.09
25510;BME280;13413;52.336;21.200;2023-05-21T04:08:19;101295.25;;;14.99;62.08
25510;BME280;13413;52.336;21.200;2023-05-21T04:11:13;101292.11;;;15.03;61.82
25510;BME280;13413;52.336;21.200;2023-05-21T04:14:08;101291.96;;;15.07;61.85
25510;BME280;13413;52.336;21.200;2023-05-21T04:17:01;101291.27;;;15.16;61.76
25510;BME280;13413;52.336;21.200;2023-05-21T04:19:56;101293.15;;;15.28;61.53
25510;BME280;13413;52.336;21.200;2023-05-21T04:22:49;101294.75;;;15.39;61.46
25510;BME280;13413;52.336;21.200;2023-05-21T04:25:43;101292.61;;;15.52;61.47
25510;BME280;13413;52.336;21.200;2023-05-21T04:28:37;101292.86;;;15.63;61.11
25510;BME280;13413;52.336;21.200;2023-05-21T04:31:31;101292.83;;;15.75;60.91
25510;BME280;13413;52.336;21.200;2023-05-21T04:34:25;101288.14;;;15.86;60.65
25510;BME280;13413;52.336;21.200;2023-05-21T04:37:19;101283.38;;;15.95;60.61
25510;BME280;13413;52.336;21.200;2023-05-21T04:40:14;101278.95;;;16.03;59.96
25510;BME280;13413;52.336;21.200;2023-05-21T04:43:08;101279.49;;;16.11;60.04
25510;BME280;13413;52.336;21.200;2023-05-21T04:46:03;101276.16;;;16.16;59.66
25510;BME280;13413;52.336;21.200;2023-05-21T04:48:56;101277.11;;;16.22;59.56
25510;BME280;13413;52.336;21.200;2023-05-21T04:51:50;101274.09;;;16.30;59.62
25510;BME280;13413;52.336;21.200;2023-05-21T04:54:44;101274.15;;;16.42;59.59
25510;BME280;13413;52.336;21.200;2023-05-21T04:57:39;101275.27;;;16.53;59.06
25510;BME280;13413;52.336;21.200;2023-05-21T05:00:33;101272.22;;;16.62;58.84
25510;BME280;13413;52.336;21.200;2023-05-21T05:03:27;101272.50;;;16.72;58.74
25510;BME280;13413;52.336;21.200;2023-05-21T05:06:21;101266.42;;;16.84;58.38
25510;BME280;13413;52.336;21.200;2023-05-21T05:09:15;101263.80;;;16.91;58.21
25510;BME280;13413;52.336;21.200;2023-05-21T05:12:09;101265.19;;;16.99;58.17
25510;BME280;13413;52.336;21.200;2023-05-21T05:15:02;101271.48;;;17.09;58.04
25510;BME280;13413;52.336;21.200;2023-05-21T05:20:41;101278.35;;;17.30;57.77
25510;BME280;13413;52.336;21.200;2023-05-21T05:23:35;101282.80;;;17.41;57.84
25510;BME280;13413;52.336;21.200;2023-05-21T05:26:29;101280.80;;;17.52;57.37
25510;BME280;13413;52.336;21.200;2023-05-21T05:29:23;101282.89;;;17.61;57.20
25510;BME280;13413;52.336;21.200;2023-05-21T05:32:18;101285.16;;;17.69;57.04
25510;BME280;13413;52.336;21.200;2023-05-21T05:35:11;101283.66;;;17.74;56.50
25510;BME280;13413;52.336;21.200;2023-05-21T05:38:05;101282.79;;;17.82;56.63
25510;BME280;13413;52.336;21.200;2023-05-21T05:41:00;101281.61;;;17.87;56.19
25510;BME280;13413;52.336;21.200;2023-05-21T05:43:53;101283.58;;;17.97;56.37
25510;BME280;13413;52.336;21.200;2023-05-21T05:46:47;101275.89;;;18.05;56.14
25510;BME280;13413;52.336;21.200;2023-05-21T05:49:41;101278.48;;;18.15;56.21
25510;BME280;13413;52.336;21.200;2023-05-21T05:52:35;101269.29;;;18.26;55.56
25510;BME280;13413;52.336;21.200;2023-05-21T05:55:29;101268.52;;;18.30;55.76
25510;BME280;13413;52.336;21.200;2023-05-21T05:58:23;101271.73;;;18.45;55.93
25510;BME280;13413;52.336;21.200;2023-05-21T06:01:17;101264.98;;;18.57;55.19
25510;BME280;13413;52.336;21.200;2023-05-21T06:07:20;101263.05;;;18.68;54.72
25510;BME280;13413;52.336;21.200;2023-05-21T06:10:14;101259.45;;;18.76;54.81
25510;BME280;13413;52.336;21.200;2023-05-21T06:13:08;101259.01;;;18.77;54.72
25510;BME280;13413;52.336;21.200;2023-05-21T06:16:02;101255.40;;;18.81;54.11
25510;BME280;13413;52.336;21.200;2023-05-21T06:18:55;101258.58;;;18.88;54.50
25510;BME280;13413;52.336;21.200;2023-05-21T06:21:49;101258.13;;;18.99;54.67
25510;BME280;13413;52.336;21.200;2023-05-21T06:24:42;101265.46;;;19.15;54.16
25510;BME280;13413;52.336;21.200;2023-05-21T06:27:36;101261.92;;;19.25;53.94
25510;BME280;13413;52.336;21.200;2023-05-21T06:30:30;101264.42;;;19.35;53.90
25510;BME280;13413;52.336;21.200;2023-05-21T06:33:25;101264.27;;;19.48;54.00
25510;BME280;13413;52.336;21.200;2023-05-21T06:36:19;101261.44;;;19.61;53.52
25510;BME280;13413;52.336;21.200;2023-05-21T06:39:13;101264.23;;;19.69;53.97
25510;BME280;13413;52.336;21.200;2023-05-21T06:42:07;101268.40;;;19.84;53.11
25510;BME280;13413;52.336;21.200;2023-05-21T06:45:02;101261.58;;;19.88;52.79
25510;BME280;13413;52.336;21.200;2023-05-21T06:47:55;101256.13;;;19.95;52.86
25510;BME280;13413;52.336;21.200;2023-05-21T06:50:50;101256.75;;;20.02;52.94
25510;BME280;13413;52.336;21.200;2023-05-21T06:53:43;101253.43;;;20.10;52.62
25510;BME280;13413;52.336;21.200;2023-05-21T06:56:38;101252.26;;;20.19;52.78
25510;BME280;13413;52.336;21.200;2023-05-21T06:59:33;101249.48;;;20.29;52.27
25510;BME280;13413;52.336;21.200;2023-05-21T07:02:27;101243.17;;;20.33;51.76
25510;BME280;13413;52.336;21.200;2023-05-21T07:05:21;101245.44;;;20.41;52.39
25510;BME280;13413;52.336;21.200;2023-05-21T07:08:15;101249.31;;;20.54;52.32
25510;BME280;13413;52.336;21.200;2023-05-21T07:11:09;101246.17;;;20.63;51.78
25510;BME280;13413;52.336;21.200;2023-05-21T07:14:03;101245.44;;;20.73;51.61
25510;BME280;13413;52.336;21.200;2023-05-21T07:16:56;101241.56;;;20.79;50.74
25510;BME280;13413;52.336;21.200;2023-05-21T07:19:50;101233.79;;;20.82;51.02
25510;BME280;13413;52.336;21.200;2023-05-21T07:22:44;101235.79;;;20.94;51.39
25510;BME280;13413;52.336;21.200;2023-05-21T07:25:38;101238.48;;;21.04;50.98
25510;BME280;13413;52.336;21.200;2023-05-21T07:28:32;101236.24;;;21.13;50.58
25510;BME280;13413;52.336;21.200;2023-05-21T07:43:31;101235.79;;;21.55;49.84
25510;BME280;13413;52.336;21.200;2023-05-21T07:46:25;101236.34;;;21.61;49.49
25510;BME280;13413;52.336;21.200;2023-05-21T07:49:19;101239.05;;;21.71;48.71
25510;BME280;13413;52.336;21.200;2023-05-21T07:52:13;101236.81;;;21.83;48.95
25510;BME280;13413;52.336;21.200;2023-05-21T07:55:08;101232.17;;;21.95;48.53
25510;BME280;13413;52.336;21.200;2023-05-21T07:58:02;101233.62;;;22.05;48.23
25510;BME280;13413;52.336;21.200;2023-05-21T08:00:56;101223.80;;;22.12;47.83
25510;BME280;13413;52.336;21.200;2023-05-21T08:03:50;101225.55;;;22.22;47.51
25510;BME280;13413;52.336;21.200;2023-05-21T08:06:44;101226.98;;;22.38;47.49
25510;BME280;13413;52.336;21.200;2023-05-21T08:09:38;101224.52;;;22.50;46.63
25510;BME280;13413;52.336;21.200;2023-05-21T08:12:52;101217.45;;;22.56;46.39
25510;BME280;13413;52.336;21.200;2023-05-21T08:15:46;101218.77;;;22.70;46.38
25510;BME280;13413;52.336;21.200;2023-05-21T08:18:40;101218.33;;;22.84;46.00
25510;BME280;13413;52.336;21.200;2023-05-21T08:24:41;101221.27;;;23.04;44.70
25510;BME280;13413;52.336;21.200;2023-05-21T08:27:37;101224.02;;;23.13;43.52
25510;BME280;13413;52.336;21.200;2023-05-21T08:30:31;101216.66;;;23.21;43.04
25510;BME280;13413;52.336;21.200;2023-05-21T08:33:26;101215.38;;;23.31;43.53
25510;BME280;13413;52.336;21.200;2023-05-21T08:36:18;101211.01;;;23.44;42.93
25510;BME280;13413;52.336;21.200;2023-05-21T08:39:12;101207.34;;;23.50;43.14
25510;BME280;13413;52.336;21.200;2023-05-21T08:42:10;101209.79;;;23.53;41.51
25510;BME280;13413;52.336;21.200;2023-05-21T08:45:08;101205.20;;;23.54;42.39
25510;BME280;13413;52.336;21.200;2023-05-21T08:48:05;101208.52;;;23.70;42.18
25510;BME280;13413;52.336;21.200;2023-05-21T08:51:01;101207.28;;;23.82;42.17
25510;BME280;13413;52.336;21.200;2023-05-21T08:53:56;101207.72;;;24.00;42.44
25510;BME280;13413;52.336;21.200;2023-05-21T08:56:50;101204.55;;;24.11;40.69
25510;BME280;13413;52.336;21.200;2023-05-21T08:59:46;101207.45;;;24.03;39.10
25510;BME280;13413;52.336;21.200;2023-05-21T09:02:40;101208.67;;;24.19;39.62
25510;BME280;13413;52.336;21.200;2023-05-21T09:05:35;101211.98;;;24.43;38.79
25510;BME280;13413;52.336;21.200;2023-05-21T09:08:33;101208.71;;;24.59;39.31
25510;BME280;13413;52.336;21.200;2023-05-21T09:11:29;101211.41;;;24.88;38.99
25510;BME280;13413;52.336;21.200;2023-05-21T09:14:22;101205.91;;;25.05;38.23
25510;BME280;13413;52.336;21.200;2023-05-21T09:17:16;101207.79;;;25.19;37.63
25510;BME280;13413;52.336;21.200;2023-05-21T09:20:13;101206.44;;;25.36;37.46
25510;BME280;13413;52.336;21.200;2023-05-21T09:23:08;101207.38;;;25.50;36.73
25510;BME280;13413;52.336;21.200;2023-05-21T09:26:10;101206.16;;;25.53;36.40
25510;BME280;13413;52.336;21.200;2023-05-21T09:29:05;101194.87;;;25.61;36.57
25510;BME280;13413;52.336;21.200;2023-05-21T09:32:04;101195.79;;;25.85;36.82
25510;BME280;13413;52.336;21.200;2023-05-21T09:35:07;101199.48;;;25.96;35.74
25510;BME280;13413;52.336;21.200;2023-05-21T09:38:02;101195.53;;;26.02;34.82
25510;BME280;13413;52.336;21.200;2023-05-21T09:41:05;101194.19;;;25.99;34.64
25510;BME280;13413;52.336;21.200;2023-05-21T09:44:01;101193.64;;;25.99;34.54
25510;BME280;13413;52.336;21.200;2023-05-21T09:46:58;101190.16;;;25.99;33.69
25510;BME280;13413;52.336;21.200;2023-05-21T09:49:52;101195.76;;;26.04;34.62
25510;BME280;13413;52.336;21.200;2023-05-21T09:52:54;101191.55;;;26.27;34.88
25510;BME280;13413;52.336;21.200;2023-05-21T09:55:46;101184.42;;;26.61;34.48
25510;BME280;13413;52.336;21.200;2023-05-21T10:06:43;101189.97;;;27.09;33.28
25510;BME280;13413;52.336;21.200;2023-05-21T10:09:40;101184.16;;;27.11;33.36
25510;BME280;13413;52.336;21.200;2023-05-21T10:12:35;101188.53;;;27.25;33.42
25510;BME280;13413;52.336;21.200;2023-05-21T10:15:33;101182.84;;;27.44;33.04
25510;BME280;13413;52.336;21.200;2023-05-21T10:18:30;101181.09;;;27.73;33.09
25510;BME280;13413;52.336;21.200;2023-05-21T10:21:25;101187.84;;;27.92;32.15
25510;BME280;13413;52.336;21.200;2023-05-21T10:24:20;101181.73;;;27.93;32.54
25510;BME280;13413;52.336;21.200;2023-05-21T10:27:14;101181.58;;;27.96;32.12
25510;BME280;13413;52.336;21.200;2023-05-21T10:30:11;101180.38;;;27.97;31.71
25510;BME280;13413;52.336;21.200;2023-05-21T10:33:06;101179.20;;;27.80;31.64
25510;BME280;13413;52.336;21.200;2023-05-21T10:35:58;101176.26;;;28.07;32.40
25510;BME280;13413;52.336;21.200;2023-05-21T10:38:51;101173.31;;;28.11;31.56
25510;BME280;13413;52.336;21.200;2023-05-21T10:41:45;101164.74;;;28.09;32.06
25510;BME280;13413;52.336;21.200;2023-05-21T10:44:43;101164.60;;;28.23;31.39
25510;BME280;13413;52.336;21.200;2023-05-21T10:47:52;101162.63;;;28.14;30.98
25510;BME280;13413;52.336;21.200;2023-05-21T10:50:55;101162.65;;;27.99;30.87
25510;BME280;13413;52.336;21.200;2023-05-21T10:57:06;101169.02;;;28.19;30.92
25510;BME280;13413;52.336;21.200;2023-05-21T11:00:01;101162.04;;;28.23;31.11
25510;BME280;13413;52.336;21.200;2023-05-21T11:02:54;101166.63;;;28.20;30.67
25510;BME280;13413;52.336;21.200;2023-05-21T11:05:51;101162.02;;;28.08;30.77
25510;BME280;13413;52.336;21.200;2023-05-21T11:08:46;101156.84;;;28.19;31.12
25510;BME280;13413;52.336;21.200;2023-05-21T11:11:42;101154.55;;;28.42;30.81
25510;BME280;13413;52.336;21.200;2023-05-21T11:14:35;101157.11;;;28.53;30.25
25510;BME280;13413;52.336;21.200;2023-05-21T11:17:37;101155.75;;;28.45;29.90
25510;BME280;13413;52.336;21.200;2023-05-21T11:20:34;101151.61;;;28.31;30.02
25510;BME280;13413;52.336;21.200;2023-05-21T11:23:31;101151.23;;;28.41;29.95
25510;BME280;13413;52.336;21.200;2023-05-21T11:29:48;101138.20;;;28.59;29.94
25510;BME280;13413;52.336;21.200;2023-05-21T11:35:56;101136.40;;;28.63;29.47
25510;BME280;13413;52.336;21.200;2023-05-21T11:41:57;101133.66;;;28.73;29.60
25510;BME280;13413;52.336;21.200;2023-05-21T11:44:50;101134.28;;;28.57;29.31
25510;BME280;13413;52.336;21.200;2023-05-21T11:47:42;101139.75;;;28.44;29.51
25510;BME280;13413;52.336;21.200;2023-05-21T11:50:35;101129.70;;;28.43;29.70
25510;BME280;13413;52.336;21.200;2023-05-21T11:53:29;101124.80;;;28.12;29.56
25510;BME280;13413;52.336;21.200;2023-05-21T11:56:22;101127.80;;;27.66;29.65
25510;BME280;13413;52.336;21.200;2023-05-21T11:59:14;101128.84;;;27.66;29.88
25510;BME280;13413;52.336;21.200;2023-05-21T12:02:07;101129.02;;;27.75;29.84
25510;BME280;13413;52.336;21.200;2023-05-21T12:05:00;101126.52;;;27.88;29.27
25510;BME280;13413;52.336;21.200;2023-05-21T12:07:52;101127.73;;;27.97;29.39
25510;BME280;13413;52.336;21.200;2023-05-21T12:10:44;101130.52;;;28.03;29.53
25510;BME280;13413;52.336;21.200;2023-05-21T12:13:37;101123.80;;;28.03;29.49
25510;BME280;13413;52.336;21.200;2023-05-21T12:16:29;101125.92;;;27.94;29.18
25510;BME280;13413;52.336;21.200;2023-05-21T12:23:52;101117.52;;;27.92;29.97
25510;BME280;13413;52.336;21.200;2023-05-21T12:26:44;101115.40;;;28.00;29.86
25510;BME280;13413;52.336;21.200;2023-05-21T12:29:36;101115.94;;;27.99;29.81
25510;BME280;13413;52.336;21.200;2023-05-21T12:32:29;101115.45;;;27.88;29.41
25510;BME280;13413;52.336;21.200;2023-05-21T12:35:22;101118.17;;;27.81;29.44
25510;BME280;13413;52.336;21.200;2023-05-21T12:38:15;101115.33;;;27.73;28.91
25510;BME280;13413;52.336;21.200;2023-05-21T12:41:08;101116.11;;;27.57;28.84
25510;BME280;13413;52.336;21.200;2023-05-21T12:44:00;101112.90;;;27.42;29.13
25510;BME280;13413;52.336;21.200;2023-05-21T12:46:52;101109.60;;;27.35;29.36
25510;BME280;13413;52.336;21.200;2023-05-21T12:49:44;101108.03;;;27.24;28.55
25510;BME280;13413;52.336;21.200;2023-05-21T12:52:38;101113.79;;;27.03;29.12
25510;BME280;13413;52.336;21.200;2023-05-21T12:55:31;101104.66;;;27.09;29.06
25510;BME280;13413;52.336;21.200;2023-05-21T12:58:23;101107.39;;;27.26;28.88
25510;BME280;13413;52.336;21.200;2023-05-21T13:01:15;101108.45;;;27.30;28.84
25510;BME280;13413;52.336;21.200;2023-05-21T13:04:07;101105.22;;;27.27;28.86
25510;BME280;13413;52.336;21.200;2023-05-21T13:06:59;101102.83;;;27.14;29.05
25510;BME280;13413;52.336;21.200;2023-05-21T13:09:51;101097.34;;;27.01;28.91
25510;BME280;13413;52.336;21.200;2023-05-21T13:12:43;101101.94;;;26.97;29.09
25510;BME280;13413;52.336;21.200;2023-05-21T13:15:35;101095.27;;;26.84;28.91
25510;BME280;13413;52.336;21.200;2023-05-21T13:18:27;101085.46;;;26.75;29.13
25510;BME280;13413;52.336;21.200;2023-05-21T13:21:19;101088.64;;;26.78;29.37
25510;BME280;13413;52.336;21.200;2023-05-21T13:24:11;101089.94;;;26.77;29.00
25510;BME280;13413;52.336;21.200;2023-05-21T13:27:03;101084.55;;;26.68;29.50
25510;BME280;13413;52.336;21.200;2023-05-21T13:29:55;101084.91;;;26.71;29.21
25510;BME280;13413;52.336;21.200;2023-05-21T13:32:48;101076.09;;;26.70;29.09
25510;BME280;13413;52.336;21.200;2023-05-21T13:35:41;101077.17;;;26.70;29.16
25510;BME280;13413;52.336;21.200;2023-05-21T13:38:33;101081.66;;;26.66;28.55
25510;BME280;13413;52.336;21.200;2023-05-21T13:41:25;101084.52;;;26.59;28.93
25510;BME280;13413;52.336;21.200;2023-05-21T13:44:17;101075.88;;;26.53;28.93
25510;BME280;13413;52.336;21.200;2023-05-21T13:47:09;101070.34;;;26.48;28.91
25510;BME280;13413;52.336;21.200;2023-05-21T13:50:02;101071.65;;;26.47;29.07
25510;BME280;13413;52.336;21.200;2023-05-21T13:52:54;101072.35;;;26.45;29.07
25510;BME280;13413;52.336;21.200;2023-05-21T13:55:47;101072.31;;;26.40;29.19
25510;BME280;13413;52.336;21.200;2023-05-21T13:58:39;101071.33;;;26.36;29.01
25510;BME280;13413;52.336;21.200;2023-05-21T14:01:31;101067.11;;;26.32;29.21
25510;BME280;13413;52.336;21.200;2023-05-21T14:04:23;101064.05;;;26.39;29.31
25510;BME280;13413;52.336;21.200;2023-05-21T14:07:16;101063.16;;;26.38;29.26
25510;BME280;13413;52.336;21.200;2023-05-21T14:10:09;101066.46;;;26.34;29.15
25510;BME280;13413;52.336;21.200;2023-05-21T14:13:01;101059.73;;;26.31;29.23
25510;BME280;13413;52.336;21.200;2023-05-21T14:15:53;101057.91;;;26.20;28.69
25510;BME280;13413;52.336;21.200;2023-05-21T14:18:45;101053.55;;;26.18;29.27
25510;BME280;13413;52.336;21.200;2023-05-21T14:21:37;101051.82;;;26.25;28.98
25510;BME280;13413;52.336;21.200;2023-05-21T14:24:30;101054.31;;;26.12;28.93
25510;BME280;13413;52.336;21.200;2023-05-21T14:27:23;101054.25;;;26.06;29.20
25510;BME280;13413;52.336;21.200;2023-05-21T14:30:15;101055.80;;;26.07;29.61
25510;BME280;13413;52.336;21.200;2023-05-21T14:33:08;101054.79;;;26.04;29.48
25510;BME280;13413;52.336;21.200;2023-05-21T14:36:01;101049.05;;;25.93;29.55
25510;BME280;13413;52.336;21.200;2023-05-21T14:43:53;101046.06;;;25.86;29.86
25510;BME280;13413;52.336;21.200;2023-05-21T14:46:46;101042.21;;;25.81;29.80
25510;BME280;13413;52.336;21.200;2023-05-21T14:49:38;101039.96;;;25.72;30.13
25510;BME280;13413;52.336;21.200;2023-05-21T14:52:30;101040.34;;;25.66;30.12
25510;BME280;13413;52.336;21.200;2023-05-21T14:55:23;101035.98;;;25.58;30.34
25510;BME280;13413;52.336;21.200;2023-05-21T14:58:15;101036.23;;;25.48;30.29
25510;BME280;13413;52.336;21.200;2023-05-21T15:01:08;101030.36;;;25.42;30.55
25510;BME280;13413;52.336;21.200;2023-05-21T15:04:00;101025.59;;;25.44;30.62
25510;BME280;13413;52.336;21.200;2023-05-21T15:06:52;101025.43;;;25.37;30.73
25510;BME280;13413;52.336;21.200;2023-05-21T15:09:44;101024.58;;;25.38;31.15
25510;BME280;13413;52.336;21.200;2023-05-21T15:12:36;101026.23;;;25.43;30.89
25510;BME280;13413;52.336;21.200;2023-05-21T15:15:29;101021.24;;;25.43;30.94
25510;BME280;13413;52.336;21.200;2023-05-21T15:18:22;101023.92;;;25.39;30.79
25510;BME280;13413;52.336;21.200;2023-05-21T15:21:16;101019.29;;;25.32;30.95
25510;BME280;13413;52.336;21.200;2023-05-21T15:24:08;101016.19;;;25.26;31.21
25510;BME280;13413;52.336;21.200;2023-05-21T15:27:00;101011.12;;;25.30;31.62
25510;BME280;13413;52.336;21.200;2023-05-21T15:29:52;101016.34;;;25.35;31.38
25510;BME280;13413;52.336;21.200;2023-05-21T15:32:45;101020.95;;;25.36;31.36
25510;BME280;13413;52.336;21.200;2023-05-21T15:35:38;101015.11;;;25.32;31.36
25510;BME280;13413;52.336;21.200;2023-05-21T15:38:30;101010.13;;;25.28;31.58
25510;BME280;13413;52.336;21.200;2023-05-21T15:41:23;101013.81;;;25.33;31.68
25510;BME280;13413;52.336;21.200;2023-05-21T15:44:15;101013.25;;;25.30;31.65
25510;BME280;13413;52.336;21.200;2023-05-21T15:47:07;101013.29;;;25.29;31.86
25510;BME280;13413;52.336;21.200;2023-05-21T15:50:00;101013.36;;;25.26;31.49
25510;BME280;13413;52.336;21.200;2023-05-21T15:52:53;101012.09;;;25.19;31.60
25510;BME280;13413;52.336;21.200;2023-05-21T15:55:46;101009.17;;;25.15;31.77
25510;BME280;13413;52.336;21.200;2023-05-21T15:58:38;101012.95;;;25.07;31.10